Tiempo atmosférico en la estación meteorológica de Castello d?Empuries, Girona (4 m.)



Fecha
DESCASC
Temp. máxima en grados centígrados (hora)
DESCASC
Temp. mínima en grados centígrados (hora)
DESCASC
Temp. media en grados centígrados
DESCASC
Racha de viento máxima en m/sg (hora)
DESCASC
Velocidad máxima media en intervalos de 10 minutos(hora)
DESCASC
Precipitaciones diarias en mm
DESCASC
Precipitaciones de 00:00 a 06:00 en mm
DESCASC
Precipitaciones de 06:00 a 12:00 en mm
DESCASC
Precipitaciones de 12:00 a 18:00 en mm
DESCASC
Precipitaciones de 18:00 a 24:00 en mm
DESCASC

Gráficas

Temp. máximas Temp. mínimas Temp. medias Precipitaciones Rachas de viento máximas Velocidades máximas media en intervalos de 10 minutos

Datos horarios

Fecha y hora oficial Temperatura (ºC) Velocidad del viento (km/h) Dirección del viento Racha (km/h) Dirección de racha Precipitación (mm) Presión (hPa) Tendencia (hPa) Humedad (%)
2020-01-22 23:00:00 13.6 21 Este 37 Este 0 -- -- 96
2020-01-22 22:00:00 13.5 21 Este 39 Este 0 -- -- 97
2020-01-22 21:00:00 13.5 24 Este 42 Este 0 -- -- 97
2020-01-22 20:00:00 13.6 21 Este 42 Este 0 -- -- 96
2020-01-22 19:00:00 13.5 22 Este 49 Este 0.2 -- -- 97
2020-01-22 18:00:00 13.4 26 Este 45 Este 0 -- -- 98
2020-01-22 17:00:00 13.3 24 Este 46 Este 0.2 -- -- 100
2020-01-22 16:00:00 13.2 18 Este 42 Este 0.4 -- -- 100
2020-01-22 15:00:00 13.3 16 Este 41 Este 0.4 -- -- 100
2020-01-22 14:00:00 13.5 22 Este 47 Este 0.4 -- -- 99
2020-01-22 13:00:00 13.3 21 Este 42 Sudeste 1 -- -- 100
2020-01-22 12:00:00 13.6 22 Este 47 Este 0.2 -- -- 98
2020-01-22 11:00:00 13.4 23 Este 49 Este 0 -- -- 99
2020-01-22 10:00:00 13.3 23 Este 46 Sudeste 0.2 -- -- 99
2020-01-22 09:00:00 13.1 19 Este 48 Este 0 -- -- 99
2020-01-22 08:00:00 13 28 Este 59 Este 0.8 -- -- 99
2020-01-22 07:00:00 12.4 20 Este 59 Este 11.2 -- -- 100
2020-01-22 06:00:00 12.4 31 Este 64 Este 0.8 -- -- 98
2020-01-22 05:00:00 12.4 34 Este 63 Este 3.6 -- -- 98
2020-01-22 04:00:00 12.2 33 Este 64 Este 3.2 -- -- 98
2020-01-22 03:00:00 12.1 35 Este 72 Sudeste 3.2 -- -- 96
2020-01-22 02:00:00 12.2 33 Este 61 Este 1.6 -- -- 91
2020-01-22 01:00:00 12.5 34 Este 69 Este 0.2 -- -- 86
2020-01-22 00:00:00 12.6 37 Este 66 Este 0.4 -- -- 82
2020-01-21 23:00:00 11.9 36 Este 66 Este 1.4 -- -- 89
2020-01-21 22:00:00 12.8 33 Nordeste 63 Este 0 -- -- 78
2020-01-21 21:00:00 12.9 30 Este 51 Este 0 -- -- 76
2020-01-21 20:00:00 12.4 28 Este 56 Nordeste 0 -- -- 77
2020-01-21 19:00:00 12.4 33 Este 57 Este 0 -- -- 77
2020-01-21 18:00:00 12.3 31 Este 55 Nordeste 0 -- -- 76
2020-01-21 17:00:00 12.3 28 Este 57 Este 0 -- -- 78
2020-01-21 16:00:00 12.2 29 Este 57 Este 0 -- -- 78
2020-01-21 15:00:00 11.9 30 Este 62 Este 0 -- -- 77
2020-01-21 14:00:00 11.9 32 Este 63 Nordeste 0.2 -- -- 78
2020-01-21 13:00:00 11.6 33 Este 63 Nordeste 0.2 -- -- 80
2020-01-21 12:00:00 10.9 36 Este 66 Este 0.6 -- -- 88
2020-01-21 11:00:00 11 39 Este 68 Este 0.6 -- -- 86
2020-01-21 10:00:00 11.2 37 Este 60 Este 0 -- -- 85
2020-01-21 09:00:00 11.2 36 Este 63 Este 0.2 -- -- 81
2020-01-21 08:00:00 10.7 31 Este 57 Nordeste 0 -- -- 84
2020-01-21 07:00:00 10.5 26 Este 51 Nordeste 0.8 -- -- 87
2020-01-21 06:00:00 10.4 29 Nordeste 55 Este 1 -- -- 88
2020-01-21 05:00:00 9.7 25 Nordeste 50 Nordeste 4.2 -- -- 93
2020-01-21 04:00:00 9.3 26 Nordeste 50 Norte 7.2 -- -- 97
2020-01-21 03:00:00 8.8 19 Nordeste 39 Nordeste 14 -- -- 99
2020-01-21 02:00:00 8.6 22 Nordeste 42 Nordeste 6.6 -- -- 97
2020-01-21 01:00:00 8.6 20 Nordeste 41 Nordeste 4.8 -- -- 96
2020-01-21 00:00:00 8.4 20 Nordeste 45 Nordeste 3.2 -- -- 96
2020-01-20 23:00:00 8.4 19 Nordeste 45 Norte 3.2 -- -- 93
2020-01-20 22:00:00 8.3 20 Nordeste 50 Nordeste 2.6 -- -- 93
2020-01-20 21:00:00 8.3 19 Nordeste 46 Nordeste 3.2 -- -- 95
2020-01-20 20:00:00 8.4 23 Nordeste 46 Nordeste 2.6 -- -- 92
2020-01-20 19:00:00 7.7 15 Norte 34 Nordeste 3.4 -- -- 98
2020-01-20 18:00:00 5.6 11 Norte 34 Norte 5.2 -- -- 100
2020-01-20 17:00:00 5.1 23 Norte 37 Norte 3 -- -- 95
2020-01-20 16:00:00 4.9 15 Norte 35 Norte 2.4 -- -- 96
2020-01-20 15:00:00 4.7 18 Norte 36 Norte 2 -- -- 95
2020-01-20 14:00:00 4.2 26 Norte 42 Norte 2.8 -- -- 91
2020-01-20 13:00:00 5.5 23 Norte 50 Noroeste 1 -- -- 82
2020-01-20 12:00:00 5.5 27 Norte 49 Norte 1 -- -- 82
2020-01-20 11:00:00 6.4 21 Norte 51 Norte 0 -- -- 74
2020-01-20 10:00:00 6.8 26 Norte 51 Norte 0 -- -- 64
2020-01-20 09:00:00 6.9 25 Norte 45 Norte 0 -- -- 54
2020-01-20 08:00:00 6.3 31 Norte 49 Norte 0 -- -- 57
2020-01-20 07:00:00 6.6 33 Norte 58 Norte 0 -- -- 51
2020-01-20 06:00:00 6.8 37 Norte 55 Norte 0 -- -- 49
2020-01-20 05:00:00 7.1 33 Norte 56 Norte 0 -- -- 46
2020-01-20 04:00:00 7 28 Norte 49 Norte 0 -- -- 46
2020-01-20 03:00:00 6.9 35 Norte 53 Norte 0 -- -- 48
2020-01-20 02:00:00 7 31 Norte 48 Norte 0 -- -- 47
2020-01-20 01:00:00 7.1 29 Norte 48 Norte 0 -- -- 47
2020-01-20 00:00:00 7.3 29 Norte 53 Norte 0 -- -- 46
2020-01-19 23:00:00 7.8 33 Norte 55 Norte 0 -- -- 44
2020-01-19 22:00:00 7.9 34 Norte 50 Norte 0 -- -- 45
2020-01-19 21:00:00 8 36 Norte 54 Norte 0 -- -- 46
2020-01-19 20:00:00 8.3 32 Norte 47 Norte 0 -- -- 45
2020-01-19 19:00:00 8.7 28 Norte 45 Norte 0 -- -- 45
2020-01-19 18:00:00 9 28 Norte 50 Norte 0 -- -- 44
2020-01-19 17:00:00 10 31 Norte 60 Norte 0 -- -- 42
2020-01-19 16:00:00 10.7 26 Norte 60 Norte 0 -- -- 37
2020-01-19 15:00:00 11.2 25 Norte 49 Nordeste 0 -- -- 36
2020-01-19 14:00:00 10.9 29 Norte 56 Norte 0 -- -- 38
2020-01-19 13:00:00 10.6 24 Norte 49 Norte 0 -- -- 44
2020-01-19 12:00:00 10.4 29 Norte 51 Norte 0 -- -- 44
2020-01-19 11:00:00 9.6 26 Norte 45 Norte 0 -- -- 47
2020-01-19 10:00:00 9 28 Norte 48 Norte 0 -- -- 47
2020-01-19 09:00:00 8 28 Norte 43 Norte 0 -- -- 61
2020-01-19 08:00:00 7.9 28 Norte 42 Norte 0 -- -- 66
2020-01-19 07:00:00 8.3 22 Norte 39 Norte 0 -- -- 70
2020-01-19 06:00:00 8.9 21 Norte 32 Norte 0 -- -- 73
2020-01-19 05:00:00 9 18 Norte 29 Norte 0 -- -- 74
2020-01-19 04:00:00 9.1 11 Norte 21 Norte 0 -- -- 77
2020-01-19 03:00:00 8.8 5 Norte 13 Norte -- -- -- 85
2020-01-19 02:00:00 9.5 9 Nordeste 28 Nordeste 0 -- -- 80
2020-01-19 01:00:00 8.9 7 Norte 9 Norte 0 -- -- 93
2020-01-19 00:00:00 8.3 5 Noroeste 8 Oeste 0 -- -- 93
2020-01-18 23:00:00 7.8 3 Noroeste 8 Noroeste 0 -- -- 91
2020-01-18 22:00:00 8.3 3 Noroeste 8 Noroeste 0 -- -- 88
2020-01-18 21:00:00 9.1 0 Calma 4 Sudoeste 0 -- -- 87
2020-01-18 20:00:00 10.1 3 Sur 13 Sudeste 0 -- -- 85
2020-01-18 19:00:00 10 6 Este 17 Este 0 -- -- 85
2020-01-18 18:00:00 10.1 8 Este 22 Este 0 -- -- 82
2020-01-18 17:00:00 10.5 9 Este 19 Este 0 -- -- 79
2020-01-18 16:00:00 11.8 9 Este 20 Este 0 -- -- 72
2020-01-18 15:00:00 13 10 Este 20 Este 0 -- -- 68
2020-01-18 14:00:00 13.1 8 Este 18 Este 0 -- -- 62
2020-01-18 13:00:00 11.4 0 Calma 6 Oeste 0 -- -- 70
2020-01-18 12:00:00 10 3 Sudoeste 10 Sudoeste 0 -- -- 80
2020-01-18 11:00:00 8.8 2 Oeste 8 Noroeste 0 -- -- 84
2020-01-18 10:00:00 5.7 4 Oeste 8 Sudoeste 0 -- -- 100
2020-01-18 09:00:00 4.3 4 Oeste 9 Oeste 0 -- -- 100
2020-01-18 08:00:00 3.7 5 Oeste 8 Sudoeste 0 -- -- 100
2020-01-18 07:00:00 3.5 4 Oeste 10 Oeste 0 -- -- 100
2020-01-18 06:00:00 3.4 4 Sudoeste 8 Oeste 0 -- -- 100
2020-01-18 05:00:00 3.3 4 Oeste 9 Oeste 0 -- -- 100
2020-01-18 04:00:00 3.9 4 Oeste 10 Sudoeste 0 -- -- 100
2020-01-18 03:00:00 4 5 Noroeste 10 Noroeste 0 -- -- 100
2020-01-18 02:00:00 4 4 Oeste 9 Sudoeste 0 -- -- 100
2020-01-18 01:00:00 3.7 6 Sudoeste 12 Sudoeste 0 -- -- 100
2020-01-18 00:00:00 3.9 5 Sudoeste 11 Sudoeste 0 -- -- 100
2020-01-17 23:00:00 4.7 7 Sudoeste 16 Sudoeste 0 -- -- 99
2020-01-17 22:00:00 4.8 3 Oeste 10 Sudoeste 0 -- -- 98
2020-01-17 21:00:00 5.7 5 Oeste 10 Oeste 0 -- -- 97
2020-01-17 20:00:00 6.6 6 Oeste 10 Oeste 0 -- -- 92
2020-01-17 19:00:00 8.2 3 Norte 13 Noroeste 0.2 -- -- 93
2020-01-17 18:00:00 9 7 Oeste 44 Noroeste 2 -- -- 88
2020-01-17 17:00:00 11.1 28 Norte 49 Norte 0 -- -- 68
2020-01-17 16:00:00 11.9 22 Norte 42 Norte 0 -- -- 64
2020-01-17 15:00:00 14.9 12 Este 22 Este 0 -- -- 73
2020-01-17 14:00:00 14.9 6 Este 15 Este 0 -- -- 72
2020-01-17 13:00:00 14.5 6 Este 12 Este 0 -- -- 69
2020-01-17 12:00:00 12.4 3 Sur 8 Sudeste 0 -- -- 82
2020-01-17 11:00:00 10.1 3 Noroeste 8 Oeste 0 -- -- 92
2020-01-17 10:00:00 8.4 3 Oeste 6 Oeste 0 -- -- 100
2020-01-17 09:00:00 5.7 5 Noroeste 8 Noroeste 0 -- -- 100
2020-01-17 08:00:00 5.9 2 Noroeste 9 Oeste 0 -- -- 100
2020-01-17 07:00:00 6 5 Oeste 13 Noroeste 0 -- -- 100
2020-01-17 06:00:00 5.3 6 Noroeste 10 Noroeste 0 -- -- 97
2020-01-17 05:00:00 7.4 3 Noroeste 9 Oeste 0 -- -- 96
2020-01-17 04:00:00 9.6 4 Noroeste 21 Sudoeste 0 -- -- 89
2020-01-17 03:00:00 10.3 10 Sudoeste 23 Sudoeste 0 -- -- 98
2020-01-17 02:00:00 7.6 9 Sur 22 Sur 0 -- -- 100
2020-01-17 01:00:00 4.4 4 Norte 7 Norte 0 -- -- 100
2020-01-17 00:00:00 4.5 4 Norte 8 Noroeste 0 -- -- 100
2020-01-16 23:00:00 4.7 3 Oeste 6 Sudoeste 0 -- -- 98
2020-01-16 22:00:00 5.8 3 Sudoeste 6 Oeste 0 -- -- 97
2020-01-16 21:00:00 7.1 3 Oeste 5 Sur 0 -- -- 96
2020-01-16 20:00:00 8.4 4 Sur 8 Sur 0 -- -- 96
2020-01-16 19:00:00 9.5 5 Sudeste 10 Sudeste 0 -- -- 91
2020-01-16 18:00:00 11.4 6 Sudeste 13 Sur 0 -- -- 81
2020-01-16 17:00:00 13.6 8 Sudeste 17 Sudeste 0 -- -- 77
2020-01-16 16:00:00 15.5 10 Sudeste 21 Sudeste 0 -- -- 69
2020-01-16 15:00:00 14.6 12 Sudeste 21 Sudeste 0 -- -- 73
2020-01-16 14:00:00 13.4 8 Este 14 Este 0 -- -- 77
2020-01-16 13:00:00 13.3 6 Sudeste 14 Sudeste 0 -- -- 75
2020-01-16 12:00:00 10.3 0 Calma 7 Oeste 0 -- -- 82
2020-01-16 11:00:00 8.3 4 Oeste 9 Sudoeste 0 -- -- 86
2020-01-16 10:00:00 6 6 Oeste 12 Oeste 0 -- -- 90
2020-01-16 09:00:00 4.7 4 Oeste 8 Oeste 0 -- -- 96
2020-01-16 08:00:00 4.6 2 Noroeste 8 Oeste 0 -- -- 96
2020-01-16 07:00:00 4 3 Oeste 9 Oeste 0 -- -- 96
2020-01-16 06:00:00 3.7 6 Oeste 9 Oeste 0 -- -- 96
2020-01-16 05:00:00 3.6 6 Oeste 9 Oeste 0 -- -- 96
2020-01-16 04:00:00 3.9 4 Oeste 9 Oeste 0 -- -- 95
2020-01-16 03:00:00 3.7 6 Oeste 10 Noroeste 0 -- -- 97
2020-01-16 02:00:00 3.4 5 Oeste 9 Oeste 0 -- -- 97
2020-01-16 01:00:00 3.6 6 Oeste 9 Oeste 0 -- -- 96
2020-01-16 00:00:00 4 5 Oeste 10 Oeste 0 -- -- 94
2020-01-15 23:00:00 4.9 4 Oeste 9 Noroeste 0 -- -- 91
2020-01-15 22:00:00 6 7 Noroeste 11 Noroeste 0 -- -- 91
2020-01-15 21:00:00 6.5 5 Oeste 9 Noroeste 0 -- -- 91
2020-01-15 20:00:00 7.7 3 Noroeste 5 Norte 0 -- -- 90
2020-01-15 19:00:00 8.6 4 Este 8 Nordeste 0 -- -- 86
2020-01-15 18:00:00 10.5 3 Este 12 Sur 0 -- -- 75
2020-01-15 17:00:00 13.5 8 Sur 19 Sudeste 0 -- -- 64
2020-01-15 16:00:00 15.8 9 Sudeste 29 Sur 0 -- -- 60
2020-01-15 15:00:00 15.7 12 Sur 25 Sudoeste 0 -- -- 54
2020-01-15 14:00:00 15.3 12 Sur 30 Sur 0 -- -- 56
2020-01-15 13:00:00 15.7 17 Sur 36 Sur 0 -- -- 58
2020-01-15 12:00:00 14.5 18 Sur 39 Sur 0 -- -- 61
2020-01-15 11:00:00 13.6 15 Sur 30 Sur 0 -- -- 71
2020-01-15 10:00:00 11.6 14 Sur 28 Sur 0 -- -- 80
2020-01-15 09:00:00 8.8 10 Sudeste 17 Sudeste 0 -- -- 89
2020-01-15 08:00:00 9.2 9 Sudeste 22 Sudeste 0 -- -- 85
2020-01-15 07:00:00 9.5 10 Sur 23 Sur 0 -- -- 83
2020-01-15 06:00:00 9.5 10 Sur 24 Sur 0 -- -- 83
2020-01-15 05:00:00 9.5 12 Sur 27 Sur 0 -- -- 86
2020-01-15 04:00:00 9 10 Sudeste 19 Sur 0 -- -- 88
2020-01-15 03:00:00 9.1 7 Sur 19 Sur 0 -- -- 86
2020-01-15 02:00:00 9.8 10 Sur 27 Sur 0 -- -- 84
2020-01-15 01:00:00 10 10 Sur 28 Sur 0 -- -- 84
2020-01-15 00:00:00 9.7 11 Sur 26 Sur 0 -- -- 86
2020-01-14 23:00:00 9.6 12 Sur 25 Sudeste 0 -- -- 86
2020-01-14 22:00:00 9.8 12 Sur 26 Sur 0 -- -- 85
2020-01-14 21:00:00 9.8 14 Sur 29 Sur 0 -- -- 79
2020-01-14 20:00:00 9.4 8 Sur 23 Sur 0 -- -- 73
2020-01-14 19:00:00 10.1 13 Sur 23 Sur 0 -- -- 73
2020-01-14 18:00:00 10.5 9 Sudeste 19 Sudeste 0 -- -- 68
2020-01-14 17:00:00 12.7 10 Sudeste 21 Sudeste 0 -- -- 63
2020-01-14 16:00:00 13.7 5 Este 13 Este 0 -- -- 65
2020-01-14 15:00:00 13.3 4 Este 9 Nordeste 0 -- -- 59
2020-01-14 14:00:00 12.3 5 Sudeste 11 Este 0 -- -- 63
2020-01-14 13:00:00 10 3 Norte 7 Norte 0 -- -- 71
2020-01-14 12:00:00 7.6 3 Norte 6 Oeste 0 -- -- 88
2020-01-14 11:00:00 4.7 3 Noroeste 6 Noroeste 0 -- -- 100
2020-01-14 10:00:00 1.6 3 Oeste 6 Oeste 0 -- -- 100
2020-01-14 09:00:00 0 3 Noroeste 5 Noroeste 0 -- -- 100
2020-01-14 08:00:00 -0.6 4 Oeste 7 Oeste 0 -- -- 100
2020-01-14 07:00:00 -0.9 4 Oeste 7 Oeste 0 -- -- 100
2020-01-14 06:00:00 -0.8 4 Sudoeste 8 Oeste 0 -- -- 100
2020-01-14 05:00:00 -0.4 4 Sudoeste 8 Sudoeste 0 -- -- 100
2020-01-14 04:00:00 0.4 5 Sudoeste 9 Sudoeste 0 -- -- 100
2020-01-14 03:00:00 0.4 4 Oeste 8 Oeste 0 -- -- 100
2020-01-14 02:00:00 0.8 4 Oeste 8 Oeste 0 -- -- 100
2020-01-14 01:00:00 0.7 5 Oeste 9 Oeste 0 -- -- 100
2020-01-14 00:00:00 1.6 3 Noroeste 6 Oeste 0 -- -- 100
2020-01-13 23:00:00 2.4 4 Oeste 7 Sudoeste 0 -- -- 99
2020-01-13 22:00:00 3.4 4 Oeste 9 Oeste 0 -- -- 98
2020-01-13 21:00:00 4.3 4 Oeste 8 Noroeste 0 -- -- 96
2020-01-13 20:00:00 5.5 0 Calma -- -- 0 -- -- 92
2020-01-13 19:00:00 7.3 0 Calma -- -- 0 -- -- 88
2020-01-13 18:00:00 9 0 Calma -- -- 0 -- -- 82
2020-01-13 17:00:00 11.1 0 Calma 10 Este 0 -- -- 77
2020-01-13 16:00:00 12.4 6 Sudeste 13 Sudeste 0 -- -- 72
2020-01-13 15:00:00 13 5 Este 12 Sudeste 0 -- -- 67
2020-01-13 14:00:00 11.9 4 Este 7 Sudeste 0 -- -- 70
2020-01-13 13:00:00 10.5 2 Norte 6 Noroeste 0 -- -- 68
2020-01-13 12:00:00 7.6 4 Oeste 6 Sudoeste 0 -- -- 79
2020-01-13 11:00:00 4.3 5 Oeste 9 Oeste 0 -- -- 90
2020-01-13 10:00:00 0.8 3 Noroeste 8 Oeste 0 -- -- 100
2020-01-13 09:00:00 -1.1 4 Oeste 9 Oeste 0 -- -- 100
2020-01-13 08:00:00 -1.3 6 Oeste 9 Oeste 0 -- -- 99
2020-01-13 07:00:00 -1.2 6 Oeste 10 Oeste 0 -- -- 99
2020-01-13 06:00:00 -0.7 4 Noroeste 8 Noroeste 0 -- -- 100
2020-01-13 05:00:00 -0.7 5 Oeste 10 Oeste 0 -- -- 99
2020-01-13 04:00:00 -0.3 6 Oeste 9 Oeste 0 -- -- 100
2020-01-13 03:00:00 -0.4 6 Oeste 9 Oeste 0 -- -- 99
2020-01-13 02:00:00 0.1 3 Oeste 9 Oeste 0 -- -- 97
2020-01-13 01:00:00 0.8 5 Oeste 8 Oeste 0 -- -- 97
2020-01-13 00:00:00 1.4 5 Noroeste 8 Noroeste 0 -- -- 96
2020-01-12 23:00:00 2.1 4 Oeste 8 Sudoeste 0 -- -- 94
2020-01-12 22:00:00 3 4 Oeste 10 Oeste 0 -- -- 93
2020-01-12 21:00:00 3.5 6 Oeste 9 Oeste 0 -- -- 91
2020-01-12 20:00:00 4.6 5 Oeste 7 Noroeste 0 -- -- 87
2020-01-12 19:00:00 6.2 4 Oeste 8 Sudoeste 0 -- -- 83
2020-01-12 18:00:00 8.1 3 Sudeste 8 Sudeste 0 -- -- 75
2020-01-12 17:00:00 10.9 4 Sudeste 8 Sudeste 0 -- -- 65
2020-01-12 16:00:00 13.1 4 Sudeste 10 Este 0 -- -- 55
2020-01-12 15:00:00 13.3 4 Este 10 Sudeste 0 -- -- 56
2020-01-12 14:00:00 12.1 3 Noroeste 6 Sudoeste 0 -- -- 57
2020-01-12 13:00:00 10.8 3 Sudoeste 8 Oeste 0 -- -- 61
2020-01-12 12:00:00 7.7 3 Noroeste 10 Noroeste 0 -- -- 79
2020-01-12 11:00:00 4.8 5 Noroeste 10 Oeste 0 -- -- 87
2020-01-12 10:00:00 1.8 4 Oeste 10 Oeste 0 -- -- 98
2020-01-12 09:00:00 -0.3 3 Oeste 10 Sudoeste 0 -- -- 100
2020-01-12 08:00:00 -0.8 4 Sudoeste 6 Sudoeste 0 -- -- 99
2020-01-12 07:00:00 -0.4 5 Oeste 9 Oeste 0 -- -- 99
2020-01-12 06:00:00 -0.4 4 Oeste 9 Oeste 0 -- -- 98
2020-01-12 05:00:00 0.1 6 Oeste 9 Oeste 0 -- -- 99
2020-01-12 04:00:00 0.4 5 Oeste 10 Oeste 0 -- -- 98
2020-01-12 03:00:00 0.4 5 Oeste 8 Oeste 0 -- -- 98
2020-01-12 02:00:00 0.7 5 Oeste 8 Oeste 0 -- -- 96
2020-01-12 01:00:00 1.2 4 Noroeste 8 Oeste 0 -- -- 95
2020-01-12 00:00:00 1.7 5 Oeste 8 Oeste 0 -- -- 92
2020-01-11 23:00:00 2.6 4 Noroeste 8 Oeste 0 -- -- 90
2020-01-11 22:00:00 3.3 6 Oeste 10 Oeste 0 -- -- 88
2020-01-11 21:00:00 4 6 Oeste 11 Sudoeste 0 -- -- 86
2020-01-11 20:00:00 4.9 0 Calma 6 Sudoeste 0 -- -- 79
2020-01-11 19:00:00 6.7 4 Oeste 9 Nordeste 0 -- -- 71
2020-01-11 18:00:00 9 5 Nordeste 13 Nordeste 0 -- -- 65
2020-01-11 17:00:00 11.8 6 Norte 14 Nordeste 0 -- -- 52
2020-01-11 16:00:00 13 8 Norte 22 Norte 0 -- -- 48
2020-01-11 15:00:00 13 15 Norte 28 Norte 0 -- -- 47
2020-01-11 14:00:00 13 14 Norte 29 Norte 0 -- -- 48
2020-01-11 13:00:00 12.8 21 Norte 33 Norte 0 -- -- 45
2020-01-11 12:00:00 12.4 14 Norte 26 Noroeste 0 -- -- 48
2020-01-11 11:00:00 11.5 10 Noroeste 31 Norte 0 -- -- 53
2020-01-11 10:00:00 10.2 19 Norte 32 Norte 0 -- -- 52
2020-01-11 09:00:00 8.1 13 Noroeste 22 Norte 0 -- -- 61
2020-01-11 08:00:00 7 3 Noroeste 19 Norte 0 -- -- 67
2020-01-11 07:00:00 6.9 7 Noroeste 21 Noroeste 0 -- -- 69
2020-01-11 06:00:00 7.7 8 Noroeste 20 Noroeste 0 -- -- 66
2020-01-11 05:00:00 8.9 11 Noroeste 26 Oeste 0 -- -- 62
2020-01-11 04:00:00 9 10 Noroeste 36 Norte 0 -- -- 62
2020-01-11 03:00:00 10.4 19 Norte 34 Nordeste 0 -- -- 55
2020-01-11 02:00:00 10.2 17 Norte 29 Noroeste 0 -- -- 57
2020-01-11 01:00:00 9.7 18 Norte 29 Noroeste 0 -- -- 66
2020-01-11 00:00:00 9.3 10 Norte 28 Noroeste 0 -- -- 68
2020-01-10 23:00:00 10.2 16 Noroeste 39 Noroeste 0 -- -- 65
2020-01-10 22:00:00 11 22 Noroeste 45 Noroeste 0 -- -- 62
2020-01-10 21:00:00 11.3 28 Noroeste 45 Noroeste 0 -- -- 63
2020-01-10 20:00:00 11.1 21 Norte 40 Norte 0 -- -- 63
2020-01-10 19:00:00 10.9 19 Norte 36 Norte 0 -- -- 66
2020-01-10 18:00:00 11.5 18 Norte 31 Noroeste 0 -- -- 65
2020-01-10 17:00:00 13.3 15 Norte 31 Norte 0 -- -- 57
2020-01-10 16:00:00 14.3 18 Noroeste 39 Norte 0 -- -- 54
2020-01-10 15:00:00 13.9 19 Norte 40 Norte 0 -- -- 58
2020-01-10 14:00:00 14.7 19 Norte 40 Norte 0 -- -- 57
2020-01-10 13:00:00 13.8 23 Norte 36 Norte 0 -- -- 59
2020-01-10 12:00:00 13.2 14 Norte 36 Noroeste 0 -- -- 64
2020-01-10 11:00:00 10.9 8 Norte 23 Norte 0.2 -- -- 79
2020-01-10 10:00:00 8.5 0 Calma 10 Oeste 0 -- -- 100
2020-01-10 09:00:00 8.3 5 Sudoeste 12 Sudoeste 0 -- -- 100
2020-01-10 08:00:00 8.4 4 Sudoeste 8 Sudoeste 0.4 -- -- 100
2020-01-10 07:00:00 8.5 5 Sudoeste 8 Oeste 0.8 -- -- 100
2020-01-10 06:00:00 8.8 4 Sudoeste 9 Norte 0.6 -- -- 100
2020-01-10 05:00:00 8.7 3 Noroeste 8 Noroeste 1 -- -- 99
2020-01-10 04:00:00 8.5 4 Oeste 6 Oeste 0 -- -- 94
2020-01-10 03:00:00 8.8 2 Nordeste 6 Oeste 0 -- -- 92
2020-01-10 02:00:00 9.1 4 Oeste 9 Sudoeste 0 -- -- 90
2020-01-10 01:00:00 9.2 4 Sudeste 9 Nordeste 0 -- -- 90
2020-01-10 00:00:00 9.2 6 Norte 9 Norte 0 -- -- 90
2020-01-09 23:00:00 9.6 0 Calma 7 Sur 0 -- -- 87
2020-01-09 22:00:00 10.6 0 Calma 24 Sur 0 -- -- 84
2020-01-09 21:00:00 10.9 12 Sur 32 Sur 0 -- -- 85
2020-01-09 20:00:00 11.3 15 Sur 32 Sur 0 -- -- 85
2020-01-09 19:00:00 11.2 13 Sur 32 Sur 0 -- -- 82
2020-01-09 18:00:00 12 11 Sur 30 Sudeste 0 -- -- 73
2020-01-09 17:00:00 13.6 14 Sur 36 Sur 0 -- -- 66
2020-01-09 16:00:00 15.7 15 Sur 32 Sur 0 -- -- 60
2020-01-09 15:00:00 16.4 16 Sur 34 Sur 0 -- -- 60
2020-01-09 14:00:00 16 16 Sur 28 Sur 0 -- -- 65
2020-01-09 13:00:00 12.7 6 Sudeste 11 Sudeste 0 -- -- 81
2020-01-09 12:00:00 9.2 0 Calma 4 Norte 0 -- -- 95
2020-01-09 11:00:00 6.4 2 Noroeste 4 Noroeste 0 -- -- 100
2020-01-09 10:00:00 3.1 0 Calma 5 Noroeste 0 -- -- 100
2020-01-09 09:00:00 0.3 5 Noroeste 7 Noroeste 0 -- -- 100
2020-01-09 08:00:00 -0.2 5 Noroeste 7 Noroeste 0 -- -- 100
2020-01-09 07:00:00 -0.1 0 Calma 5 Noroeste 0 -- -- 100
2020-01-09 06:00:00 0.6 3 Oeste 5 Oeste 0 -- -- 100
2020-01-09 05:00:00 1.1 2 Sudoeste 6 Oeste 0 -- -- 100
2020-01-09 04:00:00 1.5 3 Oeste 5 Noroeste 0 -- -- 100
2020-01-09 03:00:00 2.3 5 Oeste 6 Oeste 0 -- -- 100
2020-01-09 02:00:00 3 4 Noroeste 8 Oeste 0 -- -- 100
2020-01-09 01:00:00 3.7 5 Noroeste 8 Oeste 0 -- -- 100
2020-01-09 00:00:00 3.8 4 Oeste 8 Oeste 0 -- -- 99
2020-01-08 23:00:00 4.5 0 Calma 5 Oeste 0 -- -- 98
2020-01-08 22:00:00 5.6 3 Oeste 7 Sudoeste 0 -- -- 97
2020-01-08 21:00:00 6.7 5 Oeste 7 Oeste 0 -- -- 95
2020-01-08 20:00:00 8.3 0 Calma 6 Noroeste 0 -- -- 95
2020-01-08 19:00:00 10.1 4 Oeste 8 Sudoeste 0 -- -- 93
2020-01-08 18:00:00 12 3 Sur 10 Sudeste 0 -- -- 86
2020-01-08 17:00:00 14.4 7 Sudeste 12 Este 0 -- -- 79
2020-01-08 16:00:00 17.3 8 Sudeste 12 Sudeste 0 -- -- 66
2020-01-08 15:00:00 16.3 5 Este 16 Este 0 -- -- 60
2020-01-08 14:00:00 16 12 Este 25 Este 0 -- -- 61
2020-01-08 13:00:00 15.8 14 Nordeste 23 Este 0 -- -- 63
2020-01-08 12:00:00 15.3 4 Sur 22 Norte 0 -- -- 61
2020-01-08 11:00:00 14.7 12 Norte 24 Norte 0 -- -- 66
2020-01-08 10:00:00 12.6 18 Norte 28 Norte 0 -- -- 77
2020-01-08 09:00:00 9.9 5 Norte 14 Oeste 0 -- -- 91
2020-01-08 08:00:00 6.9 7 Sudoeste 12 Sudoeste 0 -- -- 86
2020-01-08 07:00:00 7.2 6 Oeste 10 Sudoeste 0 -- -- 79
2020-01-08 06:00:00 8.2 4 Oeste 15 Oeste 0 -- -- 75
2020-01-08 05:00:00 10.3 5 Sudoeste 11 Sudoeste 0 -- -- 68
2020-01-08 04:00:00 12.4 2 Noroeste 10 Sudoeste 0 -- -- 73
2020-01-08 03:00:00 13.1 6 Norte 22 Noroeste 0 -- -- 70
2020-01-08 02:00:00 11.1 5 Sur 10 Sudeste 0 -- -- 74
2020-01-08 01:00:00 14.1 5 Sudeste 30 Noroeste 0 -- -- 63
2020-01-08 00:00:00 15.8 18 Noroeste 40 Noroeste 0 -- -- 57
2020-01-07 23:00:00 13 11 Noroeste 21 Noroeste 0 -- -- 69
2020-01-07 22:00:00 14.4 9 Oeste 29 Noroeste 0 -- -- 63
2020-01-07 21:00:00 14.9 19 Noroeste 36 Noroeste 0 -- -- 62
2020-01-07 20:00:00 14 18 Noroeste 34 Noroeste 0 -- -- 65
2020-01-07 19:00:00 13.2 12 Noroeste 20 Oeste 0 -- -- 68
2020-01-07 18:00:00 14 8 Noroeste 17 Noroeste 0 -- -- 65
2020-01-07 17:00:00 13.4 0 Calma 8 Este 0 -- -- 73
2020-01-07 16:00:00 15.2 3 Este 7 Este 0 -- -- 67
2020-01-07 15:00:00 14.7 4 Este 12 Este 0 -- -- 66
2020-01-07 14:00:00 13.7 3 Sudoeste 9 Sudoeste 0 -- -- 63
2020-01-07 13:00:00 11.4 0 Calma 5 Norte 0 -- -- 74
2020-01-07 12:00:00 8.6 3 Oeste 7 Oeste 0 -- -- 86
2020-01-07 11:00:00 5.8 4 Sudoeste 8 Oeste 0 -- -- 100
2020-01-07 10:00:00 3.3 4 Oeste 8 Oeste 0 -- -- 100
2020-01-07 09:00:00 0.8 4 Noroeste 6 Noroeste 0 -- -- 100
2020-01-07 08:00:00 0.6 3 Norte 9 Sudoeste 0 -- -- 100
2020-01-07 07:00:00 1.2 6 Sudoeste 9 Sudoeste 0 -- -- 100
2020-01-07 06:00:00 1.2 4 Noroeste 8 Noroeste 0 -- -- 100
2020-01-07 05:00:00 1.1 5 Oeste 8 Noroeste 0 -- -- 100
2020-01-07 04:00:00 1.3 0 Calma 6 Sudoeste 0 -- -- 100
2020-01-07 03:00:00 2 0 Calma 4 Sudoeste 0 -- -- 100
2020-01-07 02:00:00 2.6 4 Sudoeste 8 Sudoeste 0 -- -- 100
2020-01-07 01:00:00 3.6 3 Oeste 10 Sur 0 -- -- 100
2020-01-07 00:00:00 3.9 3 Sur 8 Nordeste 0 -- -- 100
2020-01-06 23:00:00 4.5 4 Sudoeste 6 Oeste 0 -- -- 98
2020-01-06 22:00:00 5.7 4 Oeste 9 Oeste 0 -- -- 97
2020-01-06 21:00:00 6.4 4 Oeste 8 Noroeste 0 -- -- 95
2020-01-06 20:00:00 7.7 5 Noroeste 9 Noroeste 0 -- -- 96
2020-01-06 19:00:00 8.4 3 Noroeste 5 Norte 0 -- -- 89
2020-01-06 18:00:00 10.3 0 Calma 6 Este 0 -- -- 82
2020-01-06 17:00:00 12.5 4 Este 11 Este 0 -- -- 78
2020-01-06 16:00:00 14.1 5 Este 13 Este 0 -- -- 71
2020-01-06 15:00:00 15.5 7 Sudeste 13 Sudeste 0 -- -- 64
2020-01-06 14:00:00 14.6 4 Este 9 Sudeste 0 -- -- 67
2020-01-06 13:00:00 13 2 Noroeste 6 Norte 0 -- -- 71
2020-01-06 12:00:00 10.1 0 Calma 4 Oeste 0 -- -- 77
2020-01-06 11:00:00 7.4 2 Oeste 8 Oeste 0 -- -- 83
2020-01-06 10:00:00 4 4 Oeste 11 Oeste 0 -- -- 88